sensor_id;sensor_type;location;lat;lon;timestamp;pressure;altitude;pressure_sealevel;temperature;humidity
33185;BME280;19550;42.872;25.494;2023-10-09T00:02:24;96894.63;;;13.94;91.95
33185;BME280;19550;42.872;25.494;2023-10-09T00:04:51;96894.94;;;13.84;92.37
33185;BME280;19550;42.872;25.494;2023-10-09T00:07:18;96899.06;;;13.61;92.65
33185;BME280;19550;42.872;25.494;2023-10-09T00:09:50;96902.69;;;13.61;92.21
33185;BME280;19550;42.872;25.494;2023-10-09T00:12:20;96898.59;;;13.76;91.31
33185;BME280;19550;42.872;25.494;2023-10-09T00:14:49;96891.84;;;13.85;90.15
33185;BME280;19550;42.872;25.494;2023-10-09T00:17:16;96900.84;;;13.91;89.91
33185;BME280;19550;42.872;25.494;2023-10-09T00:19:49;96894.78;;;13.63;90.50
33185;BME280;19550;42.872;25.494;2023-10-09T00:22:17;96904.81;;;13.73;90.23
33185;BME280;19550;42.872;25.494;2023-10-09T00:24:56;96917.25;;;13.67;90.07
33185;BME280;19550;42.872;25.494;2023-10-09T00:27:38;96918.09;;;13.67;90.10
33185;BME280;19550;42.872;25.494;2023-10-09T00:30:09;96913.16;;;13.56;89.94
33185;BME280;19550;42.872;25.494;2023-10-09T00:32:40;96928.22;;;13.63;89.08
33185;BME280;19550;42.872;25.494;2023-10-09T00:35:10;96927.88;;;13.30;88.34
33185;BME280;19550;42.872;25.494;2023-10-09T00:37:54;96925.56;;;13.15;89.50
33185;BME280;19550;42.872;25.494;2023-10-09T00:40:32;96934.53;;;13.12;89.99
33185;BME280;19550;42.872;25.494;2023-10-09T00:43:02;96933.25;;;13.18;89.58
33185;BME280;19550;42.872;25.494;2023-10-09T00:45:32;96945.41;;;13.22;89.10
33185;BME280;19550;42.872;25.494;2023-10-09T00:48:05;96934.25;;;13.31;88.00
33185;BME280;19550;42.872;25.494;2023-10-09T00:50:34;96937.53;;;13.33;87.97
33185;BME280;19550;42.872;25.494;2023-10-09T00:53:02;96937.72;;;13.28;87.65
33185;BME280;19550;42.872;25.494;2023-10-09T00:55:38;96939.50;;;13.32;87.69
33185;BME280;19550;42.872;25.494;2023-10-09T00:58:12;96942.63;;;13.39;87.23
33185;BME280;19550;42.872;25.494;2023-10-09T01:00:39;96940.66;;;13.40;86.83
33185;BME280;19550;42.872;25.494;2023-10-09T01:03:13;96937.06;;;13.39;86.73
33185;BME280;19550;42.872;25.494;2023-10-09T01:05:46;96945.13;;;13.49;86.33
33185;BME280;19550;42.872;25.494;2023-10-09T01:08:23;96956.56;;;13.39;86.48
33185;BME280;19550;42.872;25.494;2023-10-09T01:10:58;96953.78;;;13.39;86.75
33185;BME280;19550;42.872;25.494;2023-10-09T01:13:35;96949.69;;;13.45;86.66
33185;BME280;19550;42.872;25.494;2023-10-09T01:16:19;96954.94;;;13.47;86.41
33185;BME280;19550;42.872;25.494;2023-10-09T01:18:48;96957.22;;;13.45;86.04
33185;BME280;19550;42.872;25.494;2023-10-09T01:21:16;96961.97;;;13.53;86.77
33185;BME280;19550;42.872;25.494;2023-10-09T01:23:45;96971.31;;;13.40;85.89
33185;BME280;19550;42.872;25.494;2023-10-09T01:26:28;96966.19;;;13.25;86.83
33185;BME280;19550;42.872;25.494;2023-10-09T01:29:04;96972.25;;;13.27;86.97
33185;BME280;19550;42.872;25.494;2023-10-09T01:31:36;96972.59;;;13.34;86.61
33185;BME280;19550;42.872;25.494;2023-10-09T01:34:09;96977.50;;;13.28;87.14
33185;BME280;19550;42.872;25.494;2023-10-09T01:36:38;96975.84;;;13.19;86.46
33185;BME280;19550;42.872;25.494;2023-10-09T01:39:08;96982.72;;;13.30;86.57
33185;BME280;19550;42.872;25.494;2023-10-09T01:41:35;96982.91;;;13.33;86.19
33185;BME280;19550;42.872;25.494;2023-10-09T01:44:11;96994.81;;;13.17;86.28
33185;BME280;19550;42.872;25.494;2023-10-09T01:46:41;97003.16;;;13.17;86.99
33185;BME280;19550;42.872;25.494;2023-10-09T01:49:11;97012.69;;;13.16;87.48
33185;BME280;19550;42.872;25.494;2023-10-09T01:51:43;97004.50;;;13.19;86.90
33185;BME280;19550;42.872;25.494;2023-10-09T01:54:12;97003.50;;;13.24;86.59
33185;BME280;19550;42.872;25.494;2023-10-09T01:56:59;97003.81;;;13.13;86.40
33185;BME280;19550;42.872;25.494;2023-10-09T01:59:31;96992.88;;;12.86;86.37
33185;BME280;19550;42.872;25.494;2023-10-09T02:01:58;96997.81;;;12.89;86.57
33185;BME280;19550;42.872;25.494;2023-10-09T02:04:26;97007.78;;;12.90;86.72
33185;BME280;19550;42.872;25.494;2023-10-09T02:06:54;97008.44;;;12.87;86.63
33185;BME280;19550;42.872;25.494;2023-10-09T02:09:22;97003.03;;;12.91;86.34
33185;BME280;19550;42.872;25.494;2023-10-09T02:11:56;97011.38;;;12.82;87.00
33185;BME280;19550;42.872;25.494;2023-10-09T02:14:23;97004.00;;;12.86;86.04
33185;BME280;19550;42.872;25.494;2023-10-09T02:16:50;97012.34;;;12.86;85.66
33185;BME280;19550;42.872;25.494;2023-10-09T02:19:33;97011.59;;;12.94;85.56
33185;BME280;19550;42.872;25.494;2023-10-09T02:22:01;97017.50;;;13.01;84.94
33185;BME280;19550;42.872;25.494;2023-10-09T02:24:39;97021.47;;;13.09;84.25
33185;BME280;19550;42.872;25.494;2023-10-09T02:27:15;97021.34;;;12.83;85.27
33185;BME280;19550;42.872;25.494;2023-10-09T02:30:04;97016.94;;;12.91;85.55
33185;BME280;19550;42.872;25.494;2023-10-09T02:32:41;97026.09;;;12.83;85.14
33185;BME280;19550;42.872;25.494;2023-10-09T02:35:09;97032.81;;;12.90;84.97
33185;BME280;19550;42.872;25.494;2023-10-09T02:37:46;97032.22;;;12.71;84.99
33185;BME280;19550;42.872;25.494;2023-10-09T02:40:15;97036.97;;;12.70;85.63
33185;BME280;19550;42.872;25.494;2023-10-09T02:42:56;97033.75;;;12.77;85.52
33185;BME280;19550;42.872;25.494;2023-10-09T02:45:24;97031.97;;;12.81;86.09
33185;BME280;19550;42.872;25.494;2023-10-09T02:47:51;97033.94;;;12.81;85.17
33185;BME280;19550;42.872;25.494;2023-10-09T02:50:21;97030.13;;;12.77;84.90
33185;BME280;19550;42.872;25.494;2023-10-09T02:52:50;97042.13;;;12.86;84.42
33185;BME280;19550;42.872;25.494;2023-10-09T02:55:25;97040.69;;;12.88;84.42
33185;BME280;19550;42.872;25.494;2023-10-09T02:57:53;97056.09;;;12.94;83.57
33185;BME280;19550;42.872;25.494;2023-10-09T03:00:31;97049.41;;;12.95;84.06
33185;BME280;19550;42.872;25.494;2023-10-09T03:03:02;97057.38;;;12.88;84.08
33185;BME280;19550;42.872;25.494;2023-10-09T03:05:31;97066.41;;;12.94;83.35
33185;BME280;19550;42.872;25.494;2023-10-09T03:07:59;97071.78;;;12.90;83.15
33185;BME280;19550;42.872;25.494;2023-10-09T03:10:28;97065.91;;;12.92;82.00
33185;BME280;19550;42.872;25.494;2023-10-09T03:12:55;97067.19;;;12.86;81.70
33185;BME280;19550;42.872;25.494;2023-10-09T03:15:27;97074.53;;;12.82;81.93
33185;BME280;19550;42.872;25.494;2023-10-09T03:17:59;97083.41;;;12.92;79.96
33185;BME280;19550;42.872;25.494;2023-10-09T03:20:26;97089.28;;;12.91;78.10
33185;BME280;19550;42.872;25.494;2023-10-09T03:22:53;97073.06;;;12.84;79.43
33185;BME280;19550;42.872;25.494;2023-10-09T03:25:20;97074.34;;;12.78;79.85
33185;BME280;19550;42.872;25.494;2023-10-09T03:27:48;97068.16;;;12.81;80.17
33185;BME280;19550;42.872;25.494;2023-10-09T03:30:16;97067.91;;;12.69;80.29
33185;BME280;19550;42.872;25.494;2023-10-09T03:32:48;97069.56;;;12.48;82.73
33185;BME280;19550;42.872;25.494;2023-10-09T03:35:17;97074.97;;;12.30;83.27
33185;BME280;19550;42.872;25.494;2023-10-09T03:37:54;97076.59;;;12.23;84.89
33185;BME280;19550;42.872;25.494;2023-10-09T03:40:25;97081.09;;;12.19;84.71
33185;BME280;19550;42.872;25.494;2023-10-09T03:42:54;97075.63;;;12.27;83.13
33185;BME280;19550;42.872;25.494;2023-10-09T03:45:20;97079.03;;;12.24;82.04
33185;BME280;19550;42.872;25.494;2023-10-09T03:47:53;97072.91;;;12.14;83.33
33185;BME280;19550;42.872;25.494;2023-10-09T03:50:34;97078.59;;;12.09;84.28
33185;BME280;19550;42.872;25.494;2023-10-09T03:53:04;97081.53;;;12.12;84.82
33185;BME280;19550;42.872;25.494;2023-10-09T03:55:34;97071.13;;;11.96;84.11
33185;BME280;19550;42.872;25.494;2023-10-09T03:58:05;97098.78;;;12.01;85.40
33185;BME280;19550;42.872;25.494;2023-10-09T04:00:32;97089.34;;;11.88;87.31
33185;BME280;19550;42.872;25.494;2023-10-09T04:03:10;97080.91;;;11.79;87.17
33185;BME280;19550;42.872;25.494;2023-10-09T04:05:41;97087.06;;;11.90;83.27
33185;BME280;19550;42.872;25.494;2023-10-09T04:08:09;97092.41;;;11.86;87.82
33185;BME280;19550;42.872;25.494;2023-10-09T04:10:41;97095.63;;;11.80;87.73
33185;BME280;19550;42.872;25.494;2023-10-09T04:13:19;97090.91;;;11.80;86.92
33185;BME280;19550;42.872;25.494;2023-10-09T04:15:51;97099.22;;;11.80;87.53
33185;BME280;19550;42.872;25.494;2023-10-09T04:18:20;97102.31;;;11.79;87.76
33185;BME280;19550;42.872;25.494;2023-10-09T04:20:54;97095.63;;;11.80;86.29
33185;BME280;19550;42.872;25.494;2023-10-09T04:23:40;97102.63;;;11.77;84.19
33185;BME280;19550;42.872;25.494;2023-10-09T04:26:24;97109.81;;;11.78;85.90
33185;BME280;19550;42.872;25.494;2023-10-09T04:28:52;97118.53;;;11.72;84.48
33185;BME280;19550;42.872;25.494;2023-10-09T04:31:20;97116.00;;;11.75;83.39
33185;BME280;19550;42.872;25.494;2023-10-09T04:33:53;97102.94;;;11.76;85.19
33185;BME280;19550;42.872;25.494;2023-10-09T04:36:44;97119.38;;;11.72;83.96
33185;BME280;19550;42.872;25.494;2023-10-09T04:39:15;97115.38;;;11.78;85.12
33185;BME280;19550;42.872;25.494;2023-10-09T04:42:01;97119.81;;;11.79;86.02
33185;BME280;19550;42.872;25.494;2023-10-09T04:44:53;97126.00;;;11.76;85.31
33185;BME280;19550;42.872;25.494;2023-10-09T04:47:26;97131.94;;;11.70;86.49
33185;BME280;19550;42.872;25.494;2023-10-09T04:50:01;97126.38;;;11.70;86.73
33185;BME280;19550;42.872;25.494;2023-10-09T04:52:33;97125.75;;;11.73;86.16
33185;BME280;19550;42.872;25.494;2023-10-09T04:55:17;97132.13;;;11.73;84.99
33185;BME280;19550;42.872;25.494;2023-10-09T04:57:50;97141.72;;;11.81;86.96
33185;BME280;19550;42.872;25.494;2023-10-09T05:00:35;97135.94;;;11.91;86.51
33185;BME280;19550;42.872;25.494;2023-10-09T05:03:27;97141.19;;;11.79;86.27
33185;BME280;19550;42.872;25.494;2023-10-09T05:06:08;97147.28;;;11.81;85.03
33185;BME280;19550;42.872;25.494;2023-10-09T05:08:47;97145.19;;;11.86;83.97
33185;BME280;19550;42.872;25.494;2023-10-09T05:11:15;97149.63;;;11.87;83.04
33185;BME280;19550;42.872;25.494;2023-10-09T05:14:00;97152.19;;;11.84;82.31
33185;BME280;19550;42.872;25.494;2023-10-09T05:16:39;97162.00;;;11.81;82.46
33185;BME280;19550;42.872;25.494;2023-10-09T05:19:20;97158.69;;;11.93;84.96
33185;BME280;19550;42.872;25.494;2023-10-09T05:21:59;97169.91;;;11.88;86.32
33185;BME280;19550;42.872;25.494;2023-10-09T05:24:33;97171.84;;;11.87;85.42
33185;BME280;19550;42.872;25.494;2023-10-09T05:27:09;97179.25;;;11.92;86.24
33185;BME280;19550;42.872;25.494;2023-10-09T05:29:43;97185.44;;;11.89;87.03
33185;BME280;19550;42.872;25.494;2023-10-09T05:32:26;97187.06;;;11.90;86.57
33185;BME280;19550;42.872;25.494;2023-10-09T05:35:00;97193.44;;;11.90;87.62
33185;BME280;19550;42.872;25.494;2023-10-09T05:37:41;97196.75;;;11.92;86.35
33185;BME280;19550;42.872;25.494;2023-10-09T05:40:12;97195.91;;;11.92;86.73
33185;BME280;19550;42.872;25.494;2023-10-09T05:42:56;97203.34;;;11.97;85.33
33185;BME280;19550;42.872;25.494;2023-10-09T05:45:26;97204.25;;;12.06;83.96
33185;BME280;19550;42.872;25.494;2023-10-09T05:48:20;97206.41;;;12.09;81.21
33185;BME280;19550;42.872;25.494;2023-10-09T05:51:04;97208.56;;;11.98;81.39
33185;BME280;19550;42.872;25.494;2023-10-09T05:53:44;97210.84;;;11.96;81.69
33185;BME280;19550;42.872;25.494;2023-10-09T05:56:37;97226.38;;;12.11;81.30
33185;BME280;19550;42.872;25.494;2023-10-09T05:59:22;97224.00;;;12.18;80.93
33185;BME280;19550;42.872;25.494;2023-10-09T06:02:06;97222.03;;;12.18;82.46
33185;BME280;19550;42.872;25.494;2023-10-09T06:04:51;97229.13;;;12.24;80.39
33185;BME280;19550;42.872;25.494;2023-10-09T06:07:20;97233.03;;;12.23;81.12
33185;BME280;19550;42.872;25.494;2023-10-09T06:10:07;97226.69;;;12.23;79.35
33185;BME280;19550;42.872;25.494;2023-10-09T06:12:54;97222.31;;;12.30;77.06
33185;BME280;19550;42.872;25.494;2023-10-09T06:15:29;97224.69;;;12.37;78.95
33185;BME280;19550;42.872;25.494;2023-10-09T06:18:15;97227.44;;;12.51;77.07
33185;BME280;19550;42.872;25.494;2023-10-09T06:20:59;97235.28;;;12.49;75.99
33185;BME280;19550;42.872;25.494;2023-10-09T06:23:55;97241.13;;;12.61;74.92
33185;BME280;19550;42.872;25.494;2023-10-09T06:26:39;97228.44;;;12.68;74.36
33185;BME280;19550;42.872;25.494;2023-10-09T06:29:06;97231.81;;;12.65;74.39
33185;BME280;19550;42.872;25.494;2023-10-09T06:31:56;97233.22;;;12.77;72.58
33185;BME280;19550;42.872;25.494;2023-10-09T06:34:42;97239.59;;;12.77;73.23
33185;BME280;19550;42.872;25.494;2023-10-09T06:37:12;97243.31;;;12.86;72.78
33185;BME280;19550;42.872;25.494;2023-10-09T06:40:00;97250.59;;;12.96;72.23
33185;BME280;19550;42.872;25.494;2023-10-09T06:42:44;97258.16;;;13.04;72.36
33185;BME280;19550;42.872;25.494;2023-10-09T06:45:16;97255.13;;;13.28;70.92
33185;BME280;19550;42.872;25.494;2023-10-09T06:47:47;97254.28;;;13.49;70.30
33185;BME280;19550;42.872;25.494;2023-10-09T06:50:21;97248.28;;;13.65;67.86
33185;BME280;19550;42.872;25.494;2023-10-09T06:52:53;97252.03;;;13.91;67.17
33185;BME280;19550;42.872;25.494;2023-10-09T06:55:39;97255.09;;;14.20;64.59
33185;BME280;19550;42.872;25.494;2023-10-09T06:58:15;97245.00;;;14.50;63.56
33185;BME280;19550;42.872;25.494;2023-10-09T07:00:48;97245.53;;;14.69;62.50
33185;BME280;19550;42.872;25.494;2023-10-09T07:03:26;97250.47;;;14.90;61.15
33185;BME280;19550;42.872;25.494;2023-10-09T07:06:03;97249.19;;;15.04;60.82
33185;BME280;19550;42.872;25.494;2023-10-09T07:08:36;97256.09;;;15.07;60.85
33185;BME280;19550;42.872;25.494;2023-10-09T07:11:02;97244.09;;;15.15;60.45
33185;BME280;19550;42.872;25.494;2023-10-09T07:13:43;97238.16;;;15.25;60.56
33185;BME280;19550;42.872;25.494;2023-10-09T07:16:20;97236.38;;;15.21;61.00
33185;BME280;19550;42.872;25.494;2023-10-09T07:18:49;97239.63;;;15.40;60.15
33185;BME280;19550;42.872;25.494;2023-10-09T07:21:20;97227.78;;;15.43;59.84
33185;BME280;19550;42.872;25.494;2023-10-09T07:23:56;97229.25;;;15.58;59.90
33185;BME280;19550;42.872;25.494;2023-10-09T07:26:39;97230.19;;;15.79;59.42
33185;BME280;19550;42.872;25.494;2023-10-09T07:29:12;97232.34;;;16.11;59.25
33185;BME280;19550;42.872;25.494;2023-10-09T07:31:49;97221.97;;;16.20;60.05
33185;BME280;19550;42.872;25.494;2023-10-09T07:34:23;97217.47;;;16.28;59.63
33185;BME280;19550;42.872;25.494;2023-10-09T07:37:19;97208.16;;;16.45;58.19
33185;BME280;19550;42.872;25.494;2023-10-09T07:39:50;97211.97;;;16.40;59.61
33185;BME280;19550;42.872;25.494;2023-10-09T07:42:22;97220.56;;;16.35;59.53
33185;BME280;19550;42.872;25.494;2023-10-09T07:44:59;97215.81;;;16.56;58.62
33185;BME280;19550;42.872;25.494;2023-10-09T07:47:37;97225.91;;;16.78;59.13
33185;BME280;19550;42.872;25.494;2023-10-09T07:50:26;97230.97;;;16.85;58.48
33185;BME280;19550;42.872;25.494;2023-10-09T07:53:04;97226.66;;;16.87;58.86
33185;BME280;19550;42.872;25.494;2023-10-09T07:55:44;97230.91;;;16.93;58.92
33185;BME280;19550;42.872;25.494;2023-10-09T07:58:20;97226.94;;;16.94;58.47
33185;BME280;19550;42.872;25.494;2023-10-09T08:00:51;97222.13;;;17.16;58.54
33185;BME280;19550;42.872;25.494;2023-10-09T08:03:32;97224.22;;;17.39;56.59
33185;BME280;19550;42.872;25.494;2023-10-09T08:05:59;97231.59;;;17.44;57.88
33185;BME280;19550;42.872;25.494;2023-10-09T08:08:53;97230.22;;;17.50;58.17
33185;BME280;19550;42.872;25.494;2023-10-09T08:11:39;97238.84;;;17.45;60.37
33185;BME280;19550;42.872;25.494;2023-10-09T08:14:22;97224.66;;;17.08;61.65
33185;BME280;19550;42.872;25.494;2023-10-09T08:17:08;97232.88;;;16.93;62.67
33185;BME280;19550;42.872;25.494;2023-10-09T08:19:39;97243.19;;;16.80;64.19
33185;BME280;19550;42.872;25.494;2023-10-09T08:22:21;97238.47;;;16.72;63.69
33185;BME280;19550;42.872;25.494;2023-10-09T08:25:06;97231.00;;;16.76;63.77
33185;BME280;19550;42.872;25.494;2023-10-09T08:27:34;97233.75;;;17.05;62.92
33185;BME280;19550;42.872;25.494;2023-10-09T08:30:19;97227.94;;;17.11;59.86
33185;BME280;19550;42.872;25.494;2023-10-09T08:33:06;97237.22;;;17.02;59.50
33185;BME280;19550;42.872;25.494;2023-10-09T08:35:47;97226.72;;;16.99;59.63
33185;BME280;19550;42.872;25.494;2023-10-09T08:38:15;97228.91;;;16.94;59.95
33185;BME280;19550;42.872;25.494;2023-10-09T08:40:48;97234.50;;;16.73;59.50
33185;BME280;19550;42.872;25.494;2023-10-09T08:43:18;97247.34;;;16.74;60.71
33185;BME280;19550;42.872;25.494;2023-10-09T08:45:47;97242.78;;;16.90;60.57
33185;BME280;19550;42.872;25.494;2023-10-09T08:48:14;97250.91;;;17.04;60.66
33185;BME280;19550;42.872;25.494;2023-10-09T08:50:42;97238.41;;;17.01;59.42
33185;BME280;19550;42.872;25.494;2023-10-09T08:53:10;97245.72;;;16.94;58.99
33185;BME280;19550;42.872;25.494;2023-10-09T08:55:37;97233.00;;;16.76;56.36
33185;BME280;19550;42.872;25.494;2023-10-09T08:58:05;97231.63;;;16.61;58.45
33185;BME280;19550;42.872;25.494;2023-10-09T09:00:39;97228.56;;;16.75;59.97
33185;BME280;19550;42.872;25.494;2023-10-09T09:03:08;97227.06;;;16.98;57.48
33185;BME280;19550;42.872;25.494;2023-10-09T09:05:35;97220.91;;;17.04;53.98
33185;BME280;19550;42.872;25.494;2023-10-09T09:08:02;97225.75;;;17.16;49.46
33185;BME280;19550;42.872;25.494;2023-10-09T09:10:29;97219.25;;;17.24;48.40
33185;BME280;19550;42.872;25.494;2023-10-09T09:13:02;97217.28;;;17.25;49.16
33185;BME280;19550;42.872;25.494;2023-10-09T09:15:29;97217.53;;;17.32;48.17
33185;BME280;19550;42.872;25.494;2023-10-09T09:18:05;97216.59;;;17.28;48.91
33185;BME280;19550;42.872;25.494;2023-10-09T09:20:34;97220.00;;;17.33;48.79
33185;BME280;19550;42.872;25.494;2023-10-09T09:23:09;97211.81;;;17.28;48.36
33185;BME280;19550;42.872;25.494;2023-10-09T09:25:42;97202.06;;;17.14;49.39
33185;BME280;19550;42.872;25.494;2023-10-09T09:28:13;97211.88;;;17.20;49.36
33185;BME280;19550;42.872;25.494;2023-10-09T09:30:45;97212.50;;;17.25;50.09
33185;BME280;19550;42.872;25.494;2023-10-09T09:33:21;97189.06;;;17.42;48.97
33185;BME280;19550;42.872;25.494;2023-10-09T09:35:56;97183.59;;;17.78;47.64
33185;BME280;19550;42.872;25.494;2023-10-09T09:38:26;97175.66;;;18.29;47.75
33185;BME280;19550;42.872;25.494;2023-10-09T09:40:56;97178.69;;;18.73;45.26
33185;BME280;19550;42.872;25.494;2023-10-09T09:43:23;97179.59;;;18.77;44.32
33185;BME280;19550;42.872;25.494;2023-10-09T09:45:52;97161.38;;;18.98;44.65
33185;BME280;19550;42.872;25.494;2023-10-09T09:48:24;97169.41;;;18.84;44.56
33185;BME280;19550;42.872;25.494;2023-10-09T09:50:52;97157.25;;;19.08;44.75
33185;BME280;19550;42.872;25.494;2023-10-09T09:53:19;97154.47;;;18.96;44.22
33185;BME280;19550;42.872;25.494;2023-10-09T09:55:50;97164.56;;;18.97;44.93
33185;BME280;19550;42.872;25.494;2023-10-09T09:58:23;97163.00;;;18.72;45.76
33185;BME280;19550;42.872;25.494;2023-10-09T10:00:56;97148.63;;;18.61;46.31
33185;BME280;19550;42.872;25.494;2023-10-09T10:03:30;97146.97;;;18.72;46.10
33185;BME280;19550;42.872;25.494;2023-10-09T10:06:00;97139.53;;;19.35;44.99
33185;BME280;19550;42.872;25.494;2023-10-09T10:08:31;97140.09;;;19.84;43.67
33185;BME280;19550;42.872;25.494;2023-10-09T10:10:59;97136.38;;;19.65;42.66
33185;BME280;19550;42.872;25.494;2023-10-09T10:13:55;97138.91;;;19.70;43.20
33185;BME280;19550;42.872;25.494;2023-10-09T10:16:27;97125.56;;;19.98;42.50
33185;BME280;19550;42.872;25.494;2023-10-09T10:19:02;97128.63;;;20.40;42.06
33185;BME280;19550;42.872;25.494;2023-10-09T10:21:48;97122.13;;;20.55;40.32
33185;BME280;19550;42.872;25.494;2023-10-09T10:24:41;97110.59;;;19.94;41.38
33185;BME280;19550;42.872;25.494;2023-10-09T10:27:24;97104.16;;;19.47;42.70
33185;BME280;19550;42.872;25.494;2023-10-09T10:30:27;97101.44;;;19.66;42.20
33185;BME280;19550;42.872;25.494;2023-10-09T10:33:00;97090.22;;;19.38;42.28
33185;BME280;19550;42.872;25.494;2023-10-09T10:35:36;97093.16;;;19.57;41.79
33185;BME280;19550;42.872;25.494;2023-10-09T10:38:33;97083.28;;;19.48;42.17
33185;BME280;19550;42.872;25.494;2023-10-09T10:41:09;97075.75;;;19.52;41.69
33185;BME280;19550;42.872;25.494;2023-10-09T10:43:38;97084.44;;;19.62;41.10
33185;BME280;19550;42.872;25.494;2023-10-09T10:46:20;97069.94;;;19.76;42.16
33185;BME280;19550;42.872;25.494;2023-10-09T10:48:56;97065.88;;;20.08;42.85
33185;BME280;19550;42.872;25.494;2023-10-09T10:51:28;97058.22;;;20.40;42.15
33185;BME280;19550;42.872;25.494;2023-10-09T10:54:04;97057.72;;;20.19;41.61
33185;BME280;19550;42.872;25.494;2023-10-09T10:56:44;97052.00;;;20.70;40.79
33185;BME280;19550;42.872;25.494;2023-10-09T10:59:15;97043.22;;;21.32;40.32
33185;BME280;19550;42.872;25.494;2023-10-09T11:01:48;97042.13;;;21.18;39.32
33185;BME280;19550;42.872;25.494;2023-10-09T11:04:39;97021.03;;;21.54;38.85
33185;BME280;19550;42.872;25.494;2023-10-09T11:07:09;97026.84;;;21.19;40.10
33185;BME280;19550;42.872;25.494;2023-10-09T11:09:45;97026.19;;;21.06;40.06
33185;BME280;19550;42.872;25.494;2023-10-09T11:12:42;97025.31;;;20.44;40.53
33185;BME280;19550;42.872;25.494;2023-10-09T11:15:30;97023.16;;;20.57;41.46
33185;BME280;19550;42.872;25.494;2023-10-09T11:18:04;97022.28;;;20.18;40.94
33185;BME280;19550;42.872;25.494;2023-10-09T11:20:33;97010.88;;;20.46;40.56
33185;BME280;19550;42.872;25.494;2023-10-09T11:23:03;97012.31;;;20.20;39.32
33185;BME280;19550;42.872;25.494;2023-10-09T11:25:43;97010.56;;;20.16;40.35
33185;BME280;19550;42.872;25.494;2023-10-09T11:28:17;97001.97;;;20.44;39.44
33185;BME280;19550;42.872;25.494;2023-10-09T11:30:55;97001.25;;;20.31;38.98
33185;BME280;19550;42.872;25.494;2023-10-09T11:33:42;96995.56;;;20.28;39.68
33185;BME280;19550;42.872;25.494;2023-10-09T11:36:09;96996.94;;;20.72;38.25
33185;BME280;19550;42.872;25.494;2023-10-09T11:38:38;96991.88;;;20.62;38.46
33185;BME280;19550;42.872;25.494;2023-10-09T11:41:14;96980.63;;;21.04;37.75
33185;BME280;19550;42.872;25.494;2023-10-09T11:43:51;96981.38;;;21.69;36.88
33185;BME280;19550;42.872;25.494;2023-10-09T11:46:17;96961.66;;;21.96;37.12
33185;BME280;19550;42.872;25.494;2023-10-09T11:49:07;96969.97;;;22.15;36.64
33185;BME280;19550;42.872;25.494;2023-10-09T11:51:52;96961.69;;;22.26;35.92
33185;BME280;19550;42.872;25.494;2023-10-09T11:54:46;96957.31;;;22.32;37.70
33185;BME280;19550;42.872;25.494;2023-10-09T11:57:14;96954.97;;;22.37;35.63
33185;BME280;19550;42.872;25.494;2023-10-09T11:59:42;96952.78;;;21.97;35.23
33185;BME280;19550;42.872;25.494;2023-10-09T12:02:10;96940.19;;;22.17;35.49
33185;BME280;19550;42.872;25.494;2023-10-09T12:04:38;96942.41;;;21.78;34.71
33185;BME280;19550;42.872;25.494;2023-10-09T12:07:07;96938.44;;;21.83;34.82
33185;BME280;19550;42.872;25.494;2023-10-09T12:09:35;96938.72;;;22.01;34.64
33185;BME280;19550;42.872;25.494;2023-10-09T12:12:06;96924.22;;;22.32;34.51
33185;BME280;19550;42.872;25.494;2023-10-09T12:14:34;96915.06;;;22.42;36.74
33185;BME280;19550;42.872;25.494;2023-10-09T12:17:04;96911.38;;;22.72;35.58
33185;BME280;19550;42.872;25.494;2023-10-09T12:19:32;96902.91;;;23.12;33.41
33185;BME280;19550;42.872;25.494;2023-10-09T12:21:59;96906.88;;;23.04;32.82
33185;BME280;19550;42.872;25.494;2023-10-09T12:24:27;96900.66;;;22.88;33.47
33185;BME280;19550;42.872;25.494;2023-10-09T12:26:55;96909.19;;;22.91;33.25
33185;BME280;19550;42.872;25.494;2023-10-09T12:29:24;96898.28;;;23.37;32.93
33185;BME280;19550;42.872;25.494;2023-10-09T12:31:55;96897.34;;;23.23;32.18
33185;BME280;19550;42.872;25.494;2023-10-09T12:34:24;96897.28;;;23.60;31.70
33185;BME280;19550;42.872;25.494;2023-10-09T12:36:53;96896.03;;;23.61;32.06
33185;BME280;19550;42.872;25.494;2023-10-09T12:39:20;96891.41;;;23.38;31.48
33185;BME280;19550;42.872;25.494;2023-10-09T12:41:47;96895.34;;;23.27;32.44
33185;BME280;19550;42.872;25.494;2023-10-09T12:44:19;96877.47;;;23.16;32.25
33185;BME280;19550;42.872;25.494;2023-10-09T12:46:47;96875.59;;;23.30;32.34
33185;BME280;19550;42.872;25.494;2023-10-09T12:49:18;96871.50;;;23.24;30.44
33185;BME280;19550;42.872;25.494;2023-10-09T12:51:50;96869.50;;;23.28;32.75
33185;BME280;19550;42.872;25.494;2023-10-09T12:54:17;96871.06;;;23.22;32.54
33185;BME280;19550;42.872;25.494;2023-10-09T12:56:49;96878.91;;;23.40;31.69
33185;BME280;19550;42.872;25.494;2023-10-09T12:59:17;96874.94;;;23.48;32.45
33185;BME280;19550;42.872;25.494;2023-10-09T13:01:47;96877.41;;;23.05;33.11
33185;BME280;19550;42.872;25.494;2023-10-09T13:04:18;96872.56;;;23.09;32.86
33185;BME280;19550;42.872;25.494;2023-10-09T13:06:48;96867.63;;;22.58;33.82
33185;BME280;19550;42.872;25.494;2023-10-09T13:09:19;96871.22;;;22.22;35.94
33185;BME280;19550;42.872;25.494;2023-10-09T13:11:58;96865.22;;;21.67;33.49
33185;BME280;19550;42.872;25.494;2023-10-09T13:14:26;96859.78;;;21.52;36.66
33185;BME280;19550;42.872;25.494;2023-10-09T13:16:54;96856.69;;;21.34;34.42
33185;BME280;19550;42.872;25.494;2023-10-09T13:19:21;96854.50;;;21.24;35.09
33185;BME280;19550;42.872;25.494;2023-10-09T13:21:49;96837.56;;;21.20;36.27
33185;BME280;19550;42.872;25.494;2023-10-09T13:24:16;96840.38;;;20.97;35.09
33185;BME280;19550;42.872;25.494;2023-10-09T13:26:46;96834.72;;;20.97;35.62
33185;BME280;19550;42.872;25.494;2023-10-09T13:29:16;96830.75;;;21.02;36.96